createdAt,value
2022-12-11T00:02:12.960Z,27.23
2022-12-11T00:04:40.538Z,31.20
2022-12-11T00:07:08.127Z,30.48
2022-12-11T00:09:35.871Z,29.80
2022-12-11T00:12:05.430Z,30.73
2022-12-11T00:14:34.167Z,31.17
2022-12-11T00:17:02.743Z,31.25
2022-12-11T00:19:30.488Z,30.02
2022-12-11T00:21:57.982Z,30.23
2022-12-11T00:24:26.291Z,31.73
2022-12-11T00:26:53.884Z,29.95
2022-12-11T00:29:21.384Z,29.45
2022-12-11T00:31:49.073Z,29.35
2022-12-11T00:34:16.977Z,29.33
2022-12-11T00:36:44.391Z,31.50
2022-12-11T00:39:11.964Z,29.23
2022-12-11T00:41:39.857Z,28.95
2022-12-11T00:44:07.464Z,28.70
2022-12-11T00:46:37.607Z,27.77
2022-12-11T00:49:05.504Z,27.40
2022-12-11T00:51:35.104Z,29.10
2022-12-11T00:54:04.501Z,28.67
2022-12-11T00:56:34.392Z,30.88
2022-12-11T00:59:02.540Z,29.83
2022-12-11T01:03:56.085Z,29.83
2022-12-11T01:06:25.661Z,31.17
2022-12-11T01:09:14.839Z,29.90
2022-12-11T01:11:43.425Z,28.27
2022-12-11T01:14:14.113Z,30.20
2022-12-11T01:16:42.259Z,30.25
2022-12-11T01:19:09.826Z,31.90
2022-12-11T01:21:37.370Z,31.10
2022-12-11T01:24:06.908Z,30.30
2022-12-11T01:26:34.740Z,32.83
2022-12-11T01:29:03.586Z,31.63
2022-12-11T01:31:32.772Z,33.78
2022-12-11T01:34:02.165Z,32.35
2022-12-11T01:36:30.368Z,32.03
2022-12-11T01:38:58.420Z,32.35
2022-12-11T01:41:25.885Z,32.97
2022-12-11T01:44:04.424Z,32.90
2022-12-11T01:46:34.300Z,30.70
2022-12-11T01:49:04.407Z,33.92
2022-12-11T01:51:34.038Z,29.88
2022-12-11T01:54:03.894Z,31.43
2022-12-11T01:56:33.991Z,31.30
2022-12-11T01:59:07.493Z,31.42
2022-12-11T02:01:44.335Z,31.33
2022-12-11T02:04:15.460Z,34.63
2022-12-11T02:06:45.535Z,32.17
2022-12-11T02:09:21.724Z,32.85
2022-12-11T02:11:59.647Z,32.40
2022-12-11T02:14:48.092Z,33.40
2022-12-11T02:17:18.842Z,32.05
2022-12-11T02:19:47.272Z,33.85
2022-12-11T02:22:18.279Z,34.55
2022-12-11T02:25:02.258Z,35.88
2022-12-11T02:27:45.110Z,32.83
2022-12-11T02:30:14.746Z,33.70
2022-12-11T02:33:11.569Z,33.37
2022-12-11T02:35:41.458Z,32.80
2022-12-11T02:38:11.527Z,32.60
2022-12-11T02:40:41.137Z,34.85
2022-12-11T02:43:10.840Z,33.83
2022-12-11T02:45:40.034Z,33.17
2022-12-11T02:48:10.151Z,34.22
2022-12-11T02:50:43.647Z,33.33
2022-12-11T02:53:13.203Z,34.67
2022-12-11T02:55:42.742Z,32.25
2022-12-11T02:58:14.224Z,33.05
2022-12-11T03:00:41.766Z,33.53
2022-12-11T03:03:11.630Z,35.38
2022-12-11T03:05:39.389Z,31.90
2022-12-11T03:08:07.306Z,34.90
2022-12-11T03:10:35.363Z,36.25
2022-12-11T03:13:05.121Z,33.92
2022-12-11T03:15:39.027Z,34.67
2022-12-11T03:18:28.219Z,36.75
2022-12-11T03:21:04.309Z,34.05
2022-12-11T03:23:34.967Z,35.30
2022-12-11T03:26:04.734Z,33.38
2022-12-11T03:28:38.704Z,35.95
2022-12-11T03:31:08.538Z,33.88
2022-12-11T03:33:38.545Z,33.90
2022-12-11T03:36:13.562Z,32.28
2022-12-11T03:38:45.098Z,33.88
2022-12-11T03:41:15.926Z,33.85
2022-12-11T03:43:43.782Z,34.70
2022-12-11T03:46:12.604Z,34.20
2022-12-11T03:48:41.875Z,33.67
2022-12-11T03:51:10.389Z,35.03
2022-12-11T03:53:39.426Z,34.17
2022-12-11T03:56:08.366Z,32.78
2022-12-11T03:58:36.092Z,32.28
2022-12-11T04:01:04.599Z,32.97
2022-12-11T04:03:32.839Z,33.15
2022-12-11T04:06:00.580Z,31.38
2022-12-11T04:08:28.138Z,33.08
2022-12-11T04:11:15.145Z,31.65
2022-12-11T04:13:42.639Z,34.05
2022-12-11T04:16:11.314Z,32.15
2022-12-11T04:18:57.578Z,31.35
2022-12-11T04:21:43.652Z,31.23
2022-12-11T04:24:17.686Z,31.33
2022-12-11T04:26:46.619Z,31.20
2022-12-11T04:29:14.918Z,30.48
2022-12-11T04:31:42.687Z,30.70
2022-12-11T04:34:10.378Z,31.80
2022-12-11T04:36:38.624Z,31.67
2022-12-11T04:39:07.178Z,30.40
2022-12-11T04:41:35.448Z,29.75
2022-12-11T04:44:04.139Z,29.40
2022-12-11T04:46:33.393Z,30.13
2022-12-11T04:49:00.830Z,32.03
2022-12-11T04:51:29.470Z,29.45
2022-12-11T04:53:57.245Z,28.95
2022-12-11T04:56:24.726Z,29.48
2022-12-11T04:58:52.340Z,28.23
2022-12-11T05:01:21.434Z,29.85
2022-12-11T05:03:49.058Z,28.08
2022-12-11T05:06:16.709Z,29.45
2022-12-11T05:08:45.815Z,30.13
2022-12-11T05:11:14.804Z,29.38
2022-12-11T05:13:42.880Z,28.98
2022-12-11T05:16:11.452Z,28.02
2022-12-11T05:18:39.102Z,28.73
2022-12-11T05:21:08.465Z,28.65
2022-12-11T05:23:36.416Z,27.55
2022-12-11T05:26:09.503Z,25.98
2022-12-11T05:28:38.659Z,25.52
2022-12-11T05:31:06.315Z,26.13
2022-12-11T05:33:38.730Z,26.50
2022-12-11T05:36:07.217Z,26.50
2022-12-11T05:38:35.241Z,29.17
2022-12-11T05:41:04.426Z,27.80
2022-12-11T05:43:34.350Z,27.85
2022-12-11T05:46:13.077Z,28.02
2022-12-11T05:48:41.236Z,27.98
2022-12-11T05:51:10.495Z,26.02
2022-12-11T05:53:39.044Z,28.13
2022-12-11T05:56:08.104Z,26.80
2022-12-11T05:58:36.448Z,26.15
2022-12-11T06:01:08.022Z,24.25
2022-12-11T06:03:35.687Z,24.35
2022-12-11T06:06:07.297Z,24.90
2022-12-11T06:08:35.283Z,25.45
2022-12-11T06:11:05.876Z,23.50
2022-12-11T06:13:35.936Z,21.75
2022-12-11T06:16:06.183Z,22.45
2022-12-11T06:18:40.820Z,22.42
2022-12-11T06:21:13.409Z,22.65
2022-12-11T06:23:41.741Z,21.25
2022-12-11T06:26:10.129Z,22.13
2022-12-11T06:28:37.883Z,23.92
2022-12-11T06:31:06.088Z,19.70
2022-12-11T06:33:34.300Z,20.77
2022-12-11T06:36:06.087Z,19.15
2022-12-11T06:38:37.060Z,20.88
2022-12-11T06:41:06.426Z,21.23
2022-12-11T06:43:35.098Z,19.77
2022-12-11T06:46:06.379Z,18.90
2022-12-11T06:48:34.680Z,18.88
2022-12-11T06:51:06.185Z,19.58
2022-12-11T06:53:37.155Z,20.38
2022-12-11T06:56:12.230Z,18.65
2022-12-11T06:58:40.097Z,19.90
2022-12-11T07:01:15.433Z,19.70
2022-12-11T07:03:43.057Z,19.45
2022-12-11T07:06:10.714Z,19.35
2022-12-11T07:08:38.407Z,19.33
2022-12-11T07:11:09.739Z,20.02
2022-12-11T07:13:37.654Z,19.35
2022-12-11T07:16:10.887Z,19.50
2022-12-11T07:18:39.551Z,17.90
2022-12-11T07:21:07.809Z,20.15
2022-12-11T07:23:36.129Z,19.95
2022-12-11T07:26:08.009Z,19.48
2022-12-11T07:28:36.646Z,19.60
2022-12-11T07:31:08.257Z,18.73
2022-12-11T07:33:35.917Z,19.17
2022-12-11T07:36:07.128Z,18.33
2022-12-11T07:38:35.323Z,19.55
2022-12-11T07:41:05.412Z,20.23
2022-12-11T07:43:35.478Z,20.35
2022-12-11T07:46:04.581Z,20.67
2022-12-11T07:48:33.869Z,20.92
2022-12-11T07:51:26.678Z,20.08
2022-12-11T07:53:59.456Z,19.25
2022-12-11T07:56:27.889Z,21.42
2022-12-11T07:59:05.315Z,20.60
2022-12-11T08:01:38.275Z,21.02
2022-12-11T08:04:08.078Z,20.52
2022-12-11T08:06:37.956Z,20.13
2022-12-11T08:09:08.516Z,21.98
2022-12-11T08:11:36.519Z,20.35
2022-12-11T08:14:07.910Z,21.67
2022-12-11T08:16:35.723Z,19.90
2022-12-11T08:19:04.898Z,19.10
2022-12-11T08:21:33.422Z,19.35
2022-12-11T08:24:01.859Z,19.42
2022-12-11T08:26:32.836Z,19.73
2022-12-11T08:29:02.927Z,19.65
2022-12-11T08:31:31.022Z,19.88
2022-12-11T08:34:00.368Z,19.30
2022-12-11T08:36:27.816Z,19.55
2022-12-11T08:38:56.433Z,18.50
2022-12-11T08:41:26.104Z,19.38
2022-12-11T08:43:55.325Z,19.50
2022-12-11T08:46:24.876Z,18.98
2022-12-11T08:48:52.715Z,18.87
2022-12-11T08:51:24.443Z,19.02
2022-12-11T08:53:52.381Z,18.83
2022-12-11T08:56:21.555Z,18.70
2022-12-11T08:58:49.511Z,18.10
2022-12-11T09:01:19.372Z,19.25
2022-12-11T09:03:46.866Z,18.77
2022-12-11T09:06:16.347Z,17.67
2022-12-11T09:08:51.898Z,18.63
2022-12-11T09:11:21.810Z,18.83
2022-12-11T09:13:49.811Z,19.43
2022-12-11T09:16:18.144Z,19.27
2022-12-11T09:18:47.457Z,18.50
2022-12-11T09:21:17.095Z,18.88
2022-12-11T09:23:45.312Z,20.08
2022-12-11T09:26:14.490Z,19.25
2022-12-11T09:28:46.170Z,18.92
2022-12-11T09:31:16.264Z,18.80
2022-12-11T09:33:43.914Z,19.25
2022-12-11T09:36:12.407Z,18.58
2022-12-11T09:38:40.377Z,18.58
2022-12-11T09:41:28.572Z,18.20
2022-12-11T09:44:12.124Z,18.98
2022-12-11T09:46:42.091Z,19.63
2022-12-11T09:49:42.782Z,19.85
2022-12-11T09:52:13.713Z,19.83
2022-12-11T09:54:45.093Z,20.65
2022-12-11T09:57:19.557Z,21.55
2022-12-11T10:00:05.631Z,22.40
2022-12-11T10:02:42.403Z,22.35
2022-12-11T10:05:26.198Z,21.13
2022-12-11T10:08:20.321Z,22.63
2022-12-11T10:10:49.282Z,21.60
2022-12-11T10:13:16.963Z,22.88
2022-12-11T10:15:47.642Z,23.33
2022-12-11T10:18:17.452Z,23.52
2022-12-11T10:20:45.893Z,24.02
2022-12-11T10:23:20.370Z,23.65
2022-12-11T10:25:54.695Z,23.88
2022-12-11T10:28:22.470Z,23.25
2022-12-11T10:30:49.979Z,21.40
2022-12-11T10:33:27.298Z,22.58
2022-12-11T10:35:58.444Z,21.75
2022-12-11T10:38:29.222Z,21.75
2022-12-11T10:41:00.338Z,22.55
2022-12-11T10:43:39.226Z,20.90
2022-12-11T10:46:08.067Z,19.38
2022-12-11T10:48:35.634Z,19.17
2022-12-11T10:51:07.392Z,18.58
2022-12-11T10:53:36.085Z,18.45
2022-12-11T10:56:05.681Z,20.30
2022-12-11T10:58:34.459Z,18.95
2022-12-11T11:01:06.744Z,20.05
2022-12-11T11:03:35.325Z,17.38
2022-12-11T11:06:20.123Z,19.45
2022-12-11T11:08:49.363Z,17.80
2022-12-11T11:11:38.094Z,18.25
2022-12-11T11:14:13.048Z,19.67
2022-12-11T11:16:41.431Z,18.30
2022-12-11T11:19:17.785Z,18.85
2022-12-11T11:21:50.188Z,18.50
2022-12-11T11:24:26.965Z,18.63
2022-12-11T11:27:12.710Z,18.80
2022-12-11T11:29:42.435Z,18.85
2022-12-11T11:32:23.002Z,19.50
2022-12-11T11:37:34.523Z,18.52
2022-12-11T11:40:25.415Z,19.25
2022-12-11T11:42:55.944Z,18.98
2022-12-11T11:45:26.082Z,19.27
2022-12-11T11:48:09.419Z,19.23
2022-12-11T11:50:39.925Z,18.02
2022-12-11T11:53:26.685Z,19.15
2022-12-11T11:56:07.500Z,18.50
2022-12-11T12:01:04.038Z,19.05
2022-12-11T12:03:33.584Z,19.10
2022-12-11T12:06:10.930Z,19.23
2022-12-11T12:08:42.622Z,19.25
2022-12-11T12:11:20.141Z,19.85
2022-12-11T12:14:17.395Z,19.20
2022-12-11T12:17:13.687Z,18.70
2022-12-11T12:19:47.923Z,19.83
2022-12-11T12:22:34.499Z,19.48
2022-12-11T12:25:17.348Z,20.25
2022-12-11T12:27:53.018Z,20.45
2022-12-11T12:30:23.640Z,18.70
2022-12-11T12:32:54.906Z,20.27
2022-12-11T12:35:41.447Z,19.80
2022-12-11T12:38:35.229Z,19.95
2022-12-11T12:41:14.198Z,19.02
2022-12-11T12:43:54.205Z,20.83
2022-12-11T12:46:27.913Z,19.58
2022-12-11T12:48:57.591Z,19.40
2022-12-11T12:51:25.987Z,20.58
2022-12-11T12:54:01.497Z,19.75
2022-12-11T12:56:31.904Z,19.05
2022-12-11T12:58:59.968Z,19.52
2022-12-11T13:01:29.535Z,18.70
2022-12-11T13:04:02.086Z,17.73
2022-12-11T13:06:35.535Z,18.52
2022-12-11T13:09:21.225Z,17.90
2022-12-11T13:11:57.991Z,17.48
2022-12-11T13:14:28.836Z,18.35
2022-12-11T13:17:08.037Z,16.95
2022-12-11T13:19:42.516Z,17.55
2022-12-11T13:22:13.514Z,16.33
2022-12-11T13:24:59.966Z,18.30
2022-12-11T13:27:36.792Z,16.05
2022-12-11T13:30:06.808Z,16.05
2022-12-11T13:32:35.419Z,17.70
2022-12-11T13:35:07.150Z,17.60
2022-12-11T13:37:41.493Z,17.98
2022-12-11T13:40:23.368Z,16.38
2022-12-11T13:42:56.749Z,16.50
2022-12-11T13:45:45.338Z,17.40
2022-12-11T13:48:19.278Z,16.15
2022-12-11T13:50:47.163Z,16.75
2022-12-11T13:53:16.608Z,16.23
2022-12-11T13:55:44.799Z,16.52
2022-12-11T13:58:22.884Z,16.13
2022-12-11T14:00:55.412Z,17.20
2022-12-11T14:03:23.839Z,16.33
2022-12-11T14:05:51.810Z,16.83
2022-12-11T14:08:23.647Z,16.50
2022-12-11T14:10:54.932Z,16.33
2022-12-11T14:13:22.733Z,16.42
2022-12-11T14:15:50.499Z,17.20
2022-12-11T14:18:21.104Z,15.50
2022-12-11T14:20:54.362Z,15.77
2022-12-11T14:23:23.846Z,15.73
2022-12-11T14:25:56.083Z,15.10
2022-12-11T14:28:27.600Z,17.98
2022-12-11T14:30:59.868Z,16.30
2022-12-11T14:33:32.992Z,16.98
2022-12-11T14:36:03.144Z,16.65
2022-12-11T14:38:37.355Z,16.30
2022-12-11T14:41:10.041Z,17.23
2022-12-11T14:43:40.606Z,17.05
2022-12-11T14:49:01.226Z,16.70
2022-12-11T14:51:37.399Z,17.10
2022-12-11T14:54:20.292Z,17.45
2022-12-11T14:56:48.298Z,18.77
2022-12-11T14:59:25.696Z,18.58
2022-12-11T15:01:58.909Z,19.08
2022-12-11T15:04:36.853Z,22.00
2022-12-11T15:07:18.829Z,22.00
2022-12-11T15:09:51.799Z,21.30
2022-12-11T15:12:22.642Z,19.95
2022-12-11T15:14:57.922Z,20.02
2022-12-11T15:17:26.165Z,20.60
2022-12-11T15:19:55.836Z,19.10
2022-12-11T15:22:25.511Z,21.20
2022-12-11T15:24:54.764Z,22.17
2022-12-11T15:27:22.220Z,20.10
2022-12-11T15:29:50.087Z,19.23
2022-12-11T15:32:19.340Z,19.33
2022-12-11T15:34:51.503Z,20.13
2022-12-11T15:37:28.768Z,21.13
2022-12-11T15:39:57.433Z,20.63
2022-12-11T15:42:30.885Z,20.85
2022-12-11T15:48:58.895Z,20.15
2022-12-11T15:51:28.425Z,20.30
2022-12-11T15:53:56.424Z,20.15
2022-12-11T15:56:24.396Z,20.17
2022-12-11T15:58:52.709Z,18.27
2022-12-11T16:01:21.117Z,20.20
2022-12-11T16:03:50.534Z,19.70
2022-12-11T16:06:18.151Z,17.75
2022-12-11T16:08:46.259Z,18.77
2022-12-11T16:11:14.687Z,18.15
2022-12-11T16:13:42.822Z,18.40
2022-12-11T16:16:10.323Z,17.90
2022-12-11T16:18:38.062Z,17.55
2022-12-11T16:21:06.494Z,18.50
2022-12-11T16:23:34.698Z,17.88
2022-12-11T16:26:06.789Z,17.80
2022-12-11T16:28:35.508Z,19.35
2022-12-11T16:31:04.506Z,18.08
2022-12-11T16:33:33.559Z,17.85
2022-12-11T16:36:02.557Z,17.67
2022-12-11T16:38:30.359Z,18.25
2022-12-11T16:41:02.603Z,18.30
2022-12-11T16:43:30.371Z,18.45
2022-12-11T16:45:58.666Z,16.90
2022-12-11T16:48:26.560Z,17.88
2022-12-11T16:50:55.525Z,17.92
2022-12-11T16:53:23.221Z,17.60
2022-12-11T16:55:51.275Z,16.17
2022-12-11T16:58:21.640Z,18.02
2022-12-11T17:00:50.119Z,16.65
2022-12-11T17:03:19.574Z,17.25
2022-12-11T17:05:47.940Z,17.50
2022-12-11T17:08:15.579Z,17.38
2022-12-11T17:10:43.785Z,17.20
2022-12-11T17:13:11.399Z,17.20
2022-12-11T17:15:46.046Z,17.20
2022-12-11T17:18:13.882Z,17.50
2022-12-11T17:20:43.095Z,16.60
2022-12-11T17:23:11.452Z,17.23
2022-12-11T17:25:42.853Z,17.02
2022-12-11T17:28:11.707Z,18.90
2022-12-11T17:30:43.881Z,17.00
2022-12-11T17:33:12.327Z,17.67
2022-12-11T17:35:40.659Z,17.58
2022-12-11T17:38:08.593Z,17.83
2022-12-11T17:40:36.341Z,18.05
2022-12-11T17:43:09.369Z,19.33
2022-12-11T17:45:48.087Z,17.52
2022-12-11T17:48:16.204Z,18.98
2022-12-11T17:50:45.333Z,17.60
2022-12-11T17:53:14.520Z,17.55
2022-12-11T17:55:44.599Z,18.60
2022-12-11T17:58:13.517Z,18.98
2022-12-11T18:00:42.821Z,18.35
2022-12-11T18:03:10.661Z,18.45
2022-12-11T18:05:48.511Z,18.70
2022-12-11T18:08:17.231Z,18.48
2022-12-11T18:10:46.174Z,18.55
2022-12-11T18:13:14.174Z,18.20
2022-12-11T18:15:43.469Z,18.30
2022-12-11T18:18:11.442Z,19.20
2022-12-11T18:20:40.242Z,18.45
2022-12-11T18:23:10.300Z,19.05
2022-12-11T18:25:38.011Z,19.58
2022-12-11T18:28:06.203Z,18.25
2022-12-11T18:30:34.512Z,17.75
2022-12-11T18:33:04.438Z,19.27
2022-12-11T18:35:34.077Z,19.50
2022-12-11T18:38:02.323Z,19.80
2022-12-11T18:40:30.090Z,18.73
2022-12-11T18:42:57.980Z,17.52
2022-12-11T18:45:29.271Z,18.58
2022-12-11T18:47:57.505Z,19.60
2022-12-11T18:50:26.938Z,19.48
2022-12-11T18:52:55.723Z,19.48
2022-12-11T18:55:23.283Z,18.45
2022-12-11T18:57:53.552Z,18.75
2022-12-11T19:00:22.230Z,19.25
2022-12-11T19:02:53.542Z,19.27
2022-12-11T19:05:22.292Z,18.98
2022-12-11T19:07:49.868Z,18.88
2022-12-11T19:10:17.806Z,19.17
2022-12-11T19:12:45.565Z,18.77
2022-12-11T19:15:13.647Z,19.65
2022-12-11T19:17:43.979Z,19.40
2022-12-11T19:20:40.229Z,20.40
2022-12-11T19:23:03.996Z,19.30
2022-12-11T19:25:33.032Z,18.88
2022-12-11T19:28:00.641Z,21.33
2022-12-11T19:30:28.204Z,19.70
2022-12-11T19:33:00.039Z,20.75
2022-12-11T19:35:32.578Z,22.92
2022-12-11T19:41:10.661Z,21.45
2022-12-11T19:43:38.498Z,21.15
2022-12-11T19:46:06.642Z,20.38
2022-12-11T19:48:38.065Z,20.55
2022-12-11T19:51:07.027Z,22.20
2022-12-11T19:53:35.620Z,21.58
2022-12-11T19:56:04.437Z,19.58
2022-12-11T19:58:34.769Z,20.63
2022-12-11T20:01:03.867Z,18.52
2022-12-11T20:03:33.964Z,26.13
2022-12-11T20:06:03.734Z,33.40
2022-12-11T20:08:49.196Z,26.08
2022-12-11T20:11:19.157Z,24.85
2022-12-11T20:13:50.885Z,23.00
2022-12-11T20:16:33.395Z,21.15
2022-12-11T20:19:10.901Z,23.38
2022-12-11T20:21:39.169Z,21.48
2022-12-11T20:24:06.774Z,23.20
2022-12-11T20:26:36.985Z,22.67
2022-12-11T20:29:07.443Z,22.05
2022-12-11T20:34:04.339Z,23.95
2022-12-11T20:36:34.631Z,23.92
2022-12-11T20:39:02.569Z,35.88
2022-12-11T20:41:30.586Z,34.53
2022-12-11T20:43:58.494Z,30.60
2022-12-11T20:46:27.788Z,31.80
2022-12-11T20:48:58.990Z,26.75
2022-12-11T20:51:29.399Z,22.27
2022-12-11T20:56:33.359Z,19.88
2022-12-11T20:59:02.948Z,21.58
2022-12-11T21:01:35.523Z,21.27
2022-12-11T21:04:07.532Z,21.20
2022-12-11T21:06:37.563Z,21.92
2022-12-11T21:09:09.171Z,22.25
2022-12-11T21:11:40.634Z,21.15
2022-12-11T21:14:10.110Z,23.38
2022-12-11T21:16:38.971Z,22.73
2022-12-11T21:19:13.668Z,21.95
2022-12-11T21:21:46.822Z,22.00
2022-12-11T21:24:22.701Z,22.45
2022-12-11T21:26:50.828Z,22.95
2022-12-11T21:29:18.757Z,20.90
2022-12-11T21:31:46.456Z,22.38
2022-12-11T21:34:16.045Z,21.23
2022-12-11T21:36:48.645Z,21.08
2022-12-11T21:39:18.625Z,23.67
2022-12-11T21:41:48.631Z,27.40
2022-12-11T21:47:11.687Z,38.42
2022-12-11T21:49:39.724Z,28.40
2022-12-11T21:52:09.918Z,23.45
2022-12-11T21:54:38.943Z,21.65
2022-12-11T21:57:07.404Z,21.20
2022-12-11T21:59:35.360Z,20.27
2022-12-11T22:02:04.122Z,19.77
2022-12-11T22:04:33.037Z,21.35
2022-12-11T22:07:00.544Z,20.95
2022-12-11T22:09:28.443Z,21.05
2022-12-11T22:11:58.573Z,20.98
2022-12-11T22:14:27.323Z,20.80
2022-12-11T22:16:55.085Z,20.25
2022-12-11T22:19:29.149Z,19.92
2022-12-11T22:22:00.020Z,20.70
2022-12-11T22:24:27.952Z,20.38
2022-12-11T22:26:55.609Z,20.80
2022-12-11T22:29:23.554Z,20.45
2022-12-11T22:31:51.095Z,19.85
2022-12-11T22:34:19.097Z,19.73
2022-12-11T22:36:46.547Z,20.77
2022-12-11T22:39:14.295Z,20.92
2022-12-11T22:41:42.665Z,20.35
2022-12-11T22:44:17.740Z,19.35
2022-12-11T22:46:49.917Z,19.30
2022-12-11T22:49:19.228Z,20.45
2022-12-11T22:51:47.975Z,20.25
2022-12-11T22:54:18.695Z,20.58
2022-12-11T22:56:46.735Z,20.23
2022-12-11T22:59:14.615Z,19.13
2022-12-11T23:01:42.933Z,17.38
2022-12-11T23:04:10.468Z,19.33
2022-12-11T23:06:38.095Z,19.20
2022-12-11T23:09:05.648Z,19.83
2022-12-11T23:11:37.005Z,19.02
2022-12-11T23:14:06.634Z,18.80
2022-12-11T23:16:36.111Z,19.97
2022-12-11T23:19:05.057Z,19.58
2022-12-11T23:21:34.030Z,18.38
2022-12-11T23:24:04.199Z,19.05
2022-12-11T23:26:34.990Z,18.40
2022-12-11T23:29:03.938Z,18.83
2022-12-11T23:31:32.561Z,18.52
2022-12-11T23:34:02.773Z,18.02
2022-12-11T23:36:30.963Z,19.17
2022-12-11T23:39:00.165Z,20.02
2022-12-11T23:41:27.850Z,19.08
2022-12-11T23:43:55.474Z,19.15
2022-12-11T23:46:24.251Z,19.58
2022-12-11T23:48:52.864Z,18.90
2022-12-11T23:51:21.617Z,17.00
2022-12-11T23:53:52.805Z,18.20
2022-12-11T23:56:22.287Z,17.90
2022-12-11T23:58:50.088Z,18.17
